createdAt,value
2022-09-13T00:01:38.267Z,100236.69
2022-09-13T00:04:05.396Z,100229.81
2022-09-13T00:06:32.487Z,100205.81
2022-09-13T00:09:00.849Z,100222.91
2022-09-13T00:11:30.405Z,100219.44
2022-09-13T00:13:58.556Z,100221.13
2022-09-13T00:16:28.188Z,100219.44
2022-09-13T00:18:56.659Z,100142.44
2022-09-13T00:21:24.810Z,100207.31
2022-09-13T00:23:54.385Z,100190.25
2022-09-13T00:26:27.593Z,100209.06
2022-09-13T00:28:57.707Z,100205.56
2022-09-13T00:31:27.755Z,100214.31
2022-09-13T00:33:55.374Z,100203.03
2022-09-13T00:36:22.379Z,100181.69
2022-09-13T00:38:49.477Z,100200.56
2022-09-13T00:41:19.044Z,100184.41
2022-09-13T00:43:54.177Z,100192.06
2022-09-13T00:46:23.905Z,100186.09
2022-09-13T00:48:56.434Z,100179.41
2022-09-13T00:51:23.943Z,100140.88
2022-09-13T00:53:55.569Z,100168.31
2022-09-13T00:56:54.904Z,100181.88
2022-09-13T00:59:27.352Z,100177.59
2022-09-13T01:01:57.164Z,100183.69
2022-09-13T01:04:27.924Z,100144.38
2022-09-13T01:06:58.802Z,100123.78
2022-09-13T01:09:27.126Z,100178.63
2022-09-13T01:12:04.737Z,100175.13
2022-09-13T01:14:33.861Z,100164.81
2022-09-13T01:17:01.441Z,100175.19
2022-09-13T01:19:28.704Z,100142.59
2022-09-13T01:22:14.562Z,100170.91
2022-09-13T01:25:00.495Z,100176.94
2022-09-13T01:27:27.506Z,100176.94
2022-09-13T01:30:13.017Z,100163.19
2022-09-13T01:32:49.752Z,100175.38
2022-09-13T01:35:38.807Z,100171.88
2022-09-13T01:38:27.145Z,100166.75
2022-09-13T01:41:23.316Z,100172.00
2022-09-13T01:44:00.742Z,100172.06
2022-09-13T01:46:58.520Z,100170.28
2022-09-13T01:49:34.366Z,100159.16
2022-09-13T01:52:13.924Z,100139.50
2022-09-13T01:54:59.302Z,100159.22
2022-09-13T01:57:36.474Z,100136.19
2022-09-13T02:00:09.484Z,100154.88
2022-09-13T02:02:46.252Z,100082.97
2022-09-13T02:05:42.364Z,100153.13
2022-09-13T02:08:29.787Z,100135.97
2022-09-13T02:11:15.127Z,100130.78
2022-09-13T02:13:48.280Z,100156.56
2022-09-13T02:16:34.274Z,100141.03
2022-09-13T02:19:10.962Z,100132.41
2022-09-13T02:21:44.054Z,100130.66
2022-09-13T02:24:17.350Z,100128.88
2022-09-13T02:26:47.430Z,100115.03
2022-09-13T02:29:18.095Z,100114.13
2022-09-13T02:31:51.593Z,100092.69
2022-09-13T02:34:23.365Z,100113.22
2022-09-13T02:36:55.046Z,100119.19
2022-09-13T02:39:24.849Z,100111.47
2022-09-13T02:42:12.836Z,100097.78
2022-09-13T02:44:51.008Z,100113.28
2022-09-13T02:47:54.164Z,100111.53
2022-09-13T02:50:38.652Z,100106.34
2022-09-13T02:53:29.792Z,100094.22
2022-09-13T02:56:45.205Z,100095.06
2022-09-13T02:59:21.165Z,100062.63
2022-09-13T03:02:04.906Z,100085.63
2022-09-13T03:04:33.784Z,100083.06
2022-09-13T03:07:04.379Z,100059.91
2022-09-13T03:09:33.039Z,100071.81
2022-09-13T03:12:35.480Z,100068.38
2022-09-13T03:15:41.182Z,100059.69
2022-09-13T03:18:40.347Z,100051.13
2022-09-13T03:21:07.844Z,100046.81
2022-09-13T03:24:05.592Z,100047.72
2022-09-13T03:26:35.582Z,100044.28
2022-09-13T03:29:13.171Z,100025.44
2022-09-13T03:31:49.677Z,100040.81
2022-09-13T03:34:25.541Z,100042.53
2022-09-13T03:37:00.013Z,100038.22
2022-09-13T03:39:53.015Z,100037.41
2022-09-13T03:42:28.842Z,100037.34
2022-09-13T03:44:58.201Z,100039.06
2022-09-13T03:47:28.942Z,100032.25
2022-09-13T03:49:57.307Z,100018.59
2022-09-13T03:52:25.162Z,99921.16
2022-09-13T03:54:53.219Z,100027.00
2022-09-13T03:57:22.915Z,100008.19
2022-09-13T03:59:55.254Z,100024.34
2022-09-13T04:02:24.513Z,100019.16
2022-09-13T04:04:52.175Z,100020.09
2022-09-13T04:07:24.283Z,100015.84
2022-09-13T04:09:51.928Z,100016.69
2022-09-13T04:12:19.422Z,100016.69
2022-09-13T04:14:46.975Z,100020.13
2022-09-13T04:17:14.653Z,99997.84
2022-09-13T04:19:42.282Z,99988.47
2022-09-13T04:22:09.603Z,100014.94
2022-09-13T04:24:36.864Z,99996.22
2022-09-13T04:27:05.086Z,100018.38
2022-09-13T04:29:32.933Z,100016.63
2022-09-13T04:32:00.546Z,100032.19
2022-09-13T04:34:28.362Z,100027.84
2022-09-13T04:36:55.865Z,100026.09
2022-09-13T04:39:24.153Z,100021.88
2022-09-13T04:41:54.935Z,100021.81
2022-09-13T04:44:24.788Z,100023.63
2022-09-13T04:46:52.138Z,100015.88
2022-09-13T04:49:20.364Z,100018.31
2022-09-13T04:51:48.101Z,100002.00
2022-09-13T04:54:16.450Z,100002.72
2022-09-13T04:56:47.383Z,100004.47
2022-09-13T04:59:15.303Z,100013.81
2022-09-13T05:01:43.068Z,99946.25
2022-09-13T05:04:11.110Z,99950.53
2022-09-13T05:06:38.964Z,100007.50
2022-09-13T05:09:06.801Z,99998.84
2022-09-13T05:11:34.016Z,100005.63
2022-09-13T05:14:01.844Z,100003.72
2022-09-13T05:16:31.677Z,100007.97
2022-09-13T05:18:59.545Z,100013.97
2022-09-13T05:21:30.613Z,99976.25
2022-09-13T05:23:58.634Z,99976.25
2022-09-13T05:26:29.942Z,100010.31
2022-09-13T05:28:57.733Z,100001.75
2022-09-13T05:31:31.308Z,99997.38
2022-09-13T05:34:02.174Z,100001.59
2022-09-13T05:36:29.977Z,99990.34
2022-09-13T05:39:25.957Z,99992.81
2022-09-13T05:41:46.194Z,99987.56
2022-09-13T05:44:14.041Z,99981.44
2022-09-13T05:46:43.034Z,99983.91
2022-09-13T05:49:12.648Z,99972.66
2022-09-13T05:51:40.006Z,99977.53
2022-09-13T05:54:07.158Z,99945.56
2022-09-13T05:56:34.279Z,99963.97
2022-09-13T05:59:01.484Z,99962.06
2022-09-13T06:01:29.723Z,99958.50
2022-09-13T06:03:58.567Z,99946.31
2022-09-13T06:06:26.927Z,99949.72
2022-09-13T06:08:55.942Z,99946.09
2022-09-13T06:11:24.318Z,99943.44
2022-09-13T06:13:51.643Z,99940.81
2022-09-13T06:16:19.054Z,99941.59
2022-09-13T06:18:46.211Z,99947.53
2022-09-13T06:21:19.735Z,99947.38
2022-09-13T06:23:48.423Z,99950.69
2022-09-13T06:26:18.084Z,99892.59
2022-09-13T06:28:58.371Z,99941.91
2022-09-13T06:31:27.860Z,99928.19
2022-09-13T06:34:01.184Z,99950.25
2022-09-13T06:36:28.466Z,99942.34
2022-09-13T06:38:55.915Z,99916.47
2022-09-13T06:41:25.173Z,99939.28
2022-09-13T06:43:58.119Z,99935.44
2022-09-13T06:46:26.890Z,99938.66
2022-09-13T06:48:54.692Z,99931.31
2022-09-13T06:51:24.136Z,99931.94
2022-09-13T06:53:53.736Z,99929.16
2022-09-13T06:56:23.718Z,99937.78
2022-09-13T06:58:55.403Z,99933.19
2022-09-13T07:01:23.903Z,99895.34
2022-09-13T07:03:57.986Z,99922.38
2022-09-13T07:06:27.889Z,99922.91
2022-09-13T07:08:56.865Z,99913.13
2022-09-13T07:11:26.595Z,99907.56
2022-09-13T07:13:56.046Z,99906.31
2022-09-13T07:16:27.344Z,99903.28
2022-09-13T07:18:56.743Z,99869.19
2022-09-13T07:21:24.157Z,99885.47
2022-09-13T07:23:52.965Z,99902.97
2022-09-13T07:26:20.800Z,99902.75
2022-09-13T07:28:50.987Z,99883.03
2022-09-13T07:31:26.943Z,99900.44
2022-09-13T07:33:56.235Z,99901.78
2022-09-13T07:36:23.605Z,99902.38
2022-09-13T07:38:51.493Z,99900.47
2022-09-13T07:41:21.147Z,99884.09
2022-09-13T07:43:48.526Z,99898.41
2022-09-13T07:46:18.126Z,99861.50
2022-09-13T07:48:46.945Z,99894.41
2022-09-13T07:51:16.012Z,99891.44
2022-09-13T07:53:44.849Z,99829.22
2022-09-13T07:56:13.685Z,99890.81
2022-09-13T07:58:42.986Z,99865.88
2022-09-13T08:01:20.249Z,99893.06
2022-09-13T08:03:59.344Z,99887.78
2022-09-13T08:06:28.552Z,99887.72
2022-09-13T08:08:56.149Z,99882.38
2022-09-13T08:11:26.527Z,99862.44
2022-09-13T08:13:53.930Z,99876.78
2022-09-13T08:16:22.692Z,99804.31
2022-09-13T08:18:52.162Z,99872.63
2022-09-13T08:21:19.426Z,99875.63
2022-09-13T08:23:46.982Z,99861.78
2022-09-13T08:26:14.740Z,99870.25
2022-09-13T08:28:43.377Z,99864.41
2022-09-13T08:31:17.396Z,99873.09
2022-09-13T08:33:46.878Z,99861.78
2022-09-13T08:36:15.613Z,99859.19
2022-09-13T08:38:49.887Z,99820.16
2022-09-13T08:41:28.761Z,99861.91
2022-09-13T08:44:04.041Z,99870.66
2022-09-13T08:46:45.033Z,99863.75
2022-09-13T08:49:18.976Z,99795.78
2022-09-13T08:51:53.207Z,99868.84
2022-09-13T08:54:20.852Z,99856.66
2022-09-13T08:57:06.921Z,99863.47
2022-09-13T08:59:52.015Z,99861.78
2022-09-13T09:02:46.713Z,99852.75
2022-09-13T09:05:33.418Z,99846.56
2022-09-13T09:08:07.332Z,99842.94
2022-09-13T09:10:41.633Z,99808.88
2022-09-13T09:13:16.166Z,99832.50
2022-09-13T09:16:12.002Z,99821.25
2022-09-13T09:18:43.564Z,99818.63
2022-09-13T09:21:16.572Z,99815.03
2022-09-13T09:23:54.665Z,99807.00
2022-09-13T09:26:31.066Z,99793.00
2022-09-13T09:29:00.963Z,99799.13
2022-09-13T09:31:42.557Z,99783.69
2022-09-13T09:34:23.139Z,99775.00
2022-09-13T09:36:53.030Z,99774.94
2022-09-13T09:39:20.067Z,99680.63
2022-09-13T09:41:47.491Z,99775.50
2022-09-13T09:44:27.853Z,99755.16
2022-09-13T09:47:03.504Z,99773.03
2022-09-13T09:49:58.463Z,99774.06
2022-09-13T09:52:44.704Z,99785.03
2022-09-13T09:55:46.030Z,99780.13
2022-09-13T09:58:17.232Z,99785.34
2022-09-13T10:00:52.656Z,99780.38
2022-09-13T10:03:32.022Z,99780.97
2022-09-13T10:06:11.608Z,99760.41
2022-09-13T10:08:41.466Z,99769.41
2022-09-13T10:11:10.002Z,99765.84
2022-09-13T10:13:38.770Z,99738.47
2022-09-13T10:16:27.332Z,99760.25
2022-09-13T10:18:54.677Z,99738.75
2022-09-13T10:21:27.420Z,99758.13
2022-09-13T10:24:18.386Z,99747.53
2022-09-13T10:26:46.232Z,99742.31
2022-09-13T10:29:17.652Z,99722.22
2022-09-13T10:31:50.184Z,99715.16
2022-09-13T10:34:22.934Z,99706.41
2022-09-13T10:37:15.215Z,99694.94
2022-09-13T10:40:00.923Z,99688.19
2022-09-13T10:42:30.154Z,99682.81
2022-09-13T10:45:20.944Z,99691.13
2022-09-13T10:47:53.263Z,99697.75
2022-09-13T10:50:25.092Z,99691.63
2022-09-13T10:52:54.253Z,99687.28
2022-09-13T10:55:30.776Z,99675.44
2022-09-13T10:58:04.014Z,99699.16
2022-09-13T11:00:46.369Z,99682.19
2022-09-13T11:03:25.807Z,99684.44
2022-09-13T11:06:02.231Z,99678.78
2022-09-13T11:08:42.172Z,99674.25
2022-09-13T11:11:09.336Z,99686.66
2022-09-13T11:13:47.038Z,99667.56
2022-09-13T11:16:35.343Z,99682.66
2022-09-13T11:19:08.246Z,99680.97
2022-09-13T11:21:38.563Z,99675.09
2022-09-13T11:24:27.062Z,99679.75
2022-09-13T11:27:20.337Z,99670.41
2022-09-13T11:30:02.174Z,99661.25
2022-09-13T11:32:44.863Z,99659.09
2022-09-13T11:35:48.744Z,99660.66
2022-09-13T11:38:54.208Z,99645.84
2022-09-13T11:41:54.689Z,99650.88
2022-09-13T11:44:33.788Z,99662.47
2022-09-13T11:47:21.394Z,99649.25
2022-09-13T11:50:03.661Z,99659.41
2022-09-13T11:53:07.647Z,99667.16
2022-09-13T11:55:42.526Z,99655.84
2022-09-13T11:58:18.295Z,99661.09
2022-09-13T12:00:51.144Z,99620.13
2022-09-13T12:03:28.959Z,99643.88
2022-09-13T12:06:01.933Z,99637.75
2022-09-13T12:09:09.996Z,99623.22
2022-09-13T12:11:44.364Z,99630.00
2022-09-13T12:14:17.352Z,99632.47
2022-09-13T12:16:52.709Z,99629.69
2022-09-13T12:19:25.721Z,99624.28
2022-09-13T12:21:57.663Z,99618.88
2022-09-13T12:24:45.424Z,99604.88
2022-09-13T12:27:43.203Z,99605.72
2022-09-13T12:30:17.863Z,99594.75
2022-09-13T12:32:47.646Z,99608.28
2022-09-13T12:35:34.924Z,99587.94
2022-09-13T12:38:35.792Z,99600.72
2022-09-13T12:41:43.310Z,99601.50
2022-09-13T12:44:34.724Z,99597.94
2022-09-13T12:47:14.054Z,99599.66
2022-09-13T12:49:50.192Z,99591.78
2022-09-13T12:52:36.883Z,99591.63
2022-09-13T12:55:56.750Z,99577.00
2022-09-13T12:58:32.572Z,99592.41
2022-09-13T13:01:12.171Z,99586.22
2022-09-13T13:04:01.827Z,99585.44
2022-09-13T13:06:31.329Z,99586.47
2022-09-13T13:09:02.395Z,99570.06
2022-09-13T13:11:41.977Z,99571.75
2022-09-13T13:14:30.329Z,99562.38
2022-09-13T13:17:45.937Z,99566.50
2022-09-13T13:20:58.342Z,99558.34
2022-09-13T13:23:31.377Z,99558.78
2022-09-13T13:26:13.616Z,99553.22
2022-09-13T13:28:47.685Z,99549.34
2022-09-13T13:31:32.873Z,99549.00
2022-09-13T13:34:34.809Z,99549.19
2022-09-13T13:37:07.989Z,99551.47
2022-09-13T13:39:46.750Z,99541.75
2022-09-13T13:42:27.036Z,99536.34
2022-09-13T13:44:54.034Z,99523.31
2022-09-13T13:47:21.045Z,99520.78
2022-09-13T13:49:53.205Z,99517.41
2022-09-13T13:52:23.451Z,99515.56
2022-09-13T13:55:04.592Z,99503.38
2022-09-13T13:57:41.574Z,99499.84
2022-09-13T14:00:27.115Z,99468.66
2022-09-13T14:03:00.346Z,99449.47
2022-09-13T14:05:45.962Z,99502.03
2022-09-13T14:08:31.042Z,99504.72
2022-09-13T14:11:19.943Z,99495.44
2022-09-13T14:14:24.725Z,99497.44
2022-09-13T14:17:15.353Z,99489.59
2022-09-13T14:19:54.176Z,99489.69
2022-09-13T14:22:22.366Z,99490.72
2022-09-13T14:24:52.325Z,99500.59
2022-09-13T14:27:27.084Z,99487.66
2022-09-13T14:30:04.755Z,99484.44
2022-09-13T14:32:42.849Z,99484.63
2022-09-13T14:35:25.053Z,99484.78
2022-09-13T14:37:52.402Z,99478.00
2022-09-13T14:40:28.604Z,99467.69
2022-09-13T14:42:56.887Z,99472.78
2022-09-13T14:45:38.316Z,99472.94
2022-09-13T14:48:10.491Z,99468.53
2022-09-13T14:50:48.655Z,99467.53
2022-09-13T14:53:28.242Z,99454.19
2022-09-13T14:55:55.422Z,99451.47
2022-09-13T14:58:37.822Z,99446.41
2022-09-13T15:01:10.249Z,99447.97
2022-09-13T15:03:41.404Z,99415.88
2022-09-13T15:06:19.643Z,99406.53
2022-09-13T15:08:48.279Z,99441.19
2022-09-13T15:11:37.586Z,99444.91
2022-09-13T15:14:21.701Z,99455.03
2022-09-13T15:17:08.828Z,99453.50
2022-09-13T15:19:39.070Z,99455.22
2022-09-13T15:22:12.474Z,99465.69
2022-09-13T15:24:44.752Z,99451.66
2022-09-13T15:27:27.681Z,99444.75
2022-09-13T15:30:06.294Z,99463.84
2022-09-13T15:32:39.674Z,99455.22
2022-09-13T15:35:30.361Z,99446.94
2022-09-13T15:38:03.005Z,99443.72
2022-09-13T15:40:41.225Z,99459.06
2022-09-13T15:43:08.474Z,99398.38
2022-09-13T15:45:35.616Z,99428.97
2022-09-13T15:48:03.143Z,99474.94
2022-09-13T15:50:33.468Z,99460.34
2022-09-13T15:53:01.997Z,99467.34
2022-09-13T15:55:31.170Z,99436.22
2022-09-13T15:57:58.236Z,99444.00
2022-09-13T16:00:28.591Z,99459.75
2022-09-13T16:02:55.773Z,99459.03
2022-09-13T16:05:22.993Z,99460.81
2022-09-13T16:07:50.086Z,99442.31
2022-09-13T16:10:21.391Z,99458.38
2022-09-13T16:12:49.299Z,99373.06
2022-09-13T16:15:17.137Z,99456.69
2022-09-13T16:17:44.196Z,99409.16
2022-09-13T16:20:17.531Z,99414.22
2022-09-13T16:22:44.973Z,99425.25
2022-09-13T16:25:15.834Z,99444.69
2022-09-13T16:27:45.063Z,99442.25
2022-09-13T16:30:20.125Z,99433.94
2022-09-13T16:32:47.232Z,99432.16
2022-09-13T16:35:16.099Z,99438.25
2022-09-13T16:37:44.650Z,99434.88
2022-09-13T16:40:11.980Z,99423.00
2022-09-13T16:42:39.509Z,99352.03
2022-09-13T16:45:07.183Z,99418.09
2022-09-13T16:47:34.287Z,99423.50
2022-09-13T16:50:01.571Z,99443.94
2022-09-13T16:52:29.579Z,99397.47
2022-09-13T16:54:57.434Z,99402.53
2022-09-13T16:57:25.066Z,99415.22
2022-09-13T16:59:53.349Z,99433.63
2022-09-13T17:02:21.505Z,99435.47
2022-09-13T17:04:48.845Z,99435.63
2022-09-13T17:07:16.194Z,99435.63
2022-09-13T17:09:43.340Z,99410.44
2022-09-13T17:12:12.818Z,99440.25
2022-09-13T17:14:42.953Z,99437.81
2022-09-13T17:17:10.230Z,99405.97
2022-09-13T17:19:37.493Z,99436.91
2022-09-13T17:22:08.235Z,99437.22
2022-09-13T17:24:37.513Z,99434.16
2022-09-13T17:27:07.088Z,99437.03
2022-09-13T17:29:35.317Z,99430.38
2022-09-13T17:32:06.243Z,99441.81
2022-09-13T17:34:34.915Z,99433.34
2022-09-13T17:37:03.886Z,99438.72
2022-09-13T17:39:31.474Z,99441.34
2022-09-13T17:41:59.138Z,99421.38
2022-09-13T17:44:26.427Z,99437.38
2022-09-13T17:46:53.562Z,99444.28
2022-09-13T17:49:20.819Z,99442.88
2022-09-13T17:51:47.918Z,99409.59
2022-09-13T17:54:15.268Z,99442.13
2022-09-13T17:56:44.353Z,99443.03
2022-09-13T17:59:12.881Z,99444.72
2022-09-13T18:01:45.524Z,99441.34
2022-09-13T18:04:14.602Z,99438.09
2022-09-13T18:06:43.454Z,99439.94
2022-09-13T18:09:11.626Z,99439.78
2022-09-13T18:11:39.185Z,99405.00
2022-09-13T18:14:07.315Z,99416.91
2022-09-13T18:16:34.798Z,99424.84
2022-09-13T18:19:02.113Z,99444.09
2022-09-13T18:21:29.493Z,99443.31
2022-09-13T18:23:59.966Z,99404.53
2022-09-13T18:26:28.705Z,99457.38
2022-09-13T18:29:02.043Z,99446.16
2022-09-13T18:31:31.166Z,99454.19
2022-09-13T18:34:01.929Z,99430.78
2022-09-13T18:36:31.084Z,99436.84
2022-09-13T18:38:58.323Z,99446.00
2022-09-13T18:41:35.301Z,99446.00
2022-09-13T18:44:02.699Z,99448.69
2022-09-13T18:46:31.911Z,99427.38
2022-09-13T18:48:59.472Z,99441.06
2022-09-13T18:51:37.946Z,99444.63
2022-09-13T18:54:06.939Z,99436.94
2022-09-13T18:56:35.035Z,99411.25
2022-09-13T18:59:04.852Z,99433.38
2022-09-13T19:01:35.117Z,99432.75
2022-09-13T19:04:05.989Z,99431.84
2022-09-13T19:06:35.007Z,99429.31
2022-09-13T19:09:03.291Z,99410.59
2022-09-13T19:11:51.771Z,99423.53
2022-09-13T19:14:23.452Z,99426.28
2022-09-13T19:16:52.548Z,99414.16
2022-09-13T19:19:19.694Z,99421.19
2022-09-13T19:21:47.286Z,99416.28
2022-09-13T19:24:19.476Z,99415.72
2022-09-13T19:26:50.958Z,99442.91
2022-09-13T19:29:21.196Z,99440.41
2022-09-13T19:31:49.609Z,99441.31
2022-09-13T19:34:19.530Z,99433.75
2022-09-13T19:36:49.118Z,99439.56
2022-09-13T19:39:16.468Z,99443.00
2022-09-13T19:41:43.662Z,99443.94
2022-09-13T19:44:12.884Z,99446.53
2022-09-13T19:46:40.835Z,99445.63
2022-09-13T19:49:08.842Z,99453.50
2022-09-13T19:51:38.718Z,99454.22
2022-09-13T19:54:08.094Z,99443.78
2022-09-13T19:56:40.614Z,99369.31
2022-09-13T19:59:09.837Z,99438.72
2022-09-13T20:01:42.685Z,99445.63
2022-09-13T20:04:18.790Z,99443.94
2022-09-13T20:06:50.986Z,99438.72
2022-09-13T20:09:20.353Z,99442.22
2022-09-13T20:11:48.871Z,99400.06
2022-09-13T20:14:18.653Z,99415.00
2022-09-13T20:16:46.544Z,99443.00
2022-09-13T20:22:10.325Z,99437.28
2022-09-13T20:24:37.599Z,99430.59
2022-09-13T20:27:04.848Z,99438.34
2022-09-13T20:29:32.167Z,99432.50
2022-09-13T20:32:00.147Z,99426.22
2022-09-13T20:34:28.205Z,99408.66
2022-09-13T20:36:55.529Z,99422.47
2022-09-13T20:39:22.798Z,99432.50
2022-09-13T20:41:50.294Z,99412.19
2022-09-13T20:44:18.203Z,99408.78
2022-09-13T20:46:45.263Z,99432.38
2022-09-13T20:49:12.574Z,99430.66
2022-09-13T20:51:39.826Z,99430.78
2022-09-13T20:54:08.065Z,99376.63
2022-09-13T20:56:35.713Z,99442.94
2022-09-13T20:59:04.401Z,99436.00
2022-09-13T21:01:32.668Z,99433.34
2022-09-13T21:04:00.699Z,99430.94
2022-09-13T21:06:30.394Z,99437.72
2022-09-13T21:09:00.159Z,99426.38
2022-09-13T21:11:34.301Z,99430.66
2022-09-13T21:14:04.614Z,99432.38
2022-09-13T21:16:33.634Z,99437.59
2022-09-13T21:19:01.175Z,99376.63
2022-09-13T21:21:34.822Z,99435.03
2022-09-13T21:24:04.734Z,99434.19
2022-09-13T21:26:33.491Z,99446.44
2022-09-13T21:29:01.112Z,99427.84
2022-09-13T21:31:31.292Z,99430.94
2022-09-13T21:34:00.366Z,99384.31
2022-09-13T21:36:28.745Z,99425.72
2022-09-13T21:38:56.958Z,99428.28
2022-09-13T21:41:26.155Z,99423.91
2022-09-13T21:43:54.264Z,99429.13
2022-09-13T21:46:27.413Z,99439.56
2022-09-13T21:49:00.513Z,99423.91
2022-09-13T21:51:29.284Z,99416.38
2022-09-13T21:53:59.399Z,99426.41
2022-09-13T21:56:29.585Z,99419.53
2022-09-13T21:59:02.102Z,99408.25
2022-09-13T22:01:32.489Z,99405.13
2022-09-13T22:04:01.591Z,99413.59
2022-09-13T22:06:33.816Z,99416.13
2022-09-13T22:09:03.684Z,99389.75
2022-09-13T22:11:33.323Z,99405.97
2022-09-13T22:14:01.006Z,99398.22
2022-09-13T22:16:34.480Z,99400.06
2022-09-13T22:19:09.297Z,99405.13
2022-09-13T22:21:40.565Z,99405.13
2022-09-13T22:24:08.894Z,99399.00
2022-09-13T22:26:38.333Z,99391.16
2022-09-13T22:29:05.576Z,99396.38
2022-09-13T22:31:35.642Z,99396.38
2022-09-13T22:34:03.779Z,99388.72
2022-09-13T22:36:31.313Z,99394.72
2022-09-13T22:38:58.582Z,99381.81
2022-09-13T22:41:31.624Z,99380.03
2022-09-13T22:44:00.384Z,99369.91
2022-09-13T22:46:35.751Z,99382.84
2022-09-13T22:49:04.810Z,99374.25
2022-09-13T22:51:32.669Z,99366.50
2022-09-13T22:54:03.734Z,99357.34
2022-09-13T22:56:34.089Z,99377.91
2022-09-13T22:59:07.709Z,99367.50
2022-09-13T23:01:36.210Z,99364.94
2022-09-13T23:04:04.042Z,99333.50
2022-09-13T23:06:32.299Z,99362.56
2022-09-13T23:09:02.071Z,99364.38
2022-09-13T23:11:32.406Z,99351.00
2022-09-13T23:14:00.788Z,99368.19
2022-09-13T23:16:40.258Z,99365.56
2022-09-13T23:19:07.906Z,99332.47
2022-09-13T23:21:36.992Z,99364.53
2022-09-13T23:24:06.119Z,99337.56
2022-09-13T23:26:34.417Z,99356.97
2022-09-13T23:29:03.808Z,99376.34
2022-09-13T23:31:34.030Z,99372.00
2022-09-13T23:34:06.377Z,99367.63
2022-09-13T23:36:36.411Z,99372.56
2022-09-13T23:39:05.630Z,99365.88
2022-09-13T23:41:33.660Z,99360.72
2022-09-13T23:44:02.091Z,99363.94
2022-09-13T23:46:30.104Z,99362.28
2022-09-13T23:48:57.431Z,99356.28
2022-09-13T23:51:26.836Z,99363.94
2022-09-13T23:53:57.273Z,99364.78
2022-09-13T23:56:26.688Z,99363.94
2022-09-13T23:58:55.221Z,99362.28
